sensor_id;sensor_type;location;lat;lon;timestamp;P1;durP1;ratioP1;P2;durP2;ratioP2
79460;SDS011;68929;42.666;23.324;2023-12-07T00:01:18;27.80;;;20.50;;
79460;SDS011;68929;42.666;23.324;2023-12-07T00:03:44;18.17;;;14.85;;
79460;SDS011;68929;42.666;23.324;2023-12-07T00:06:09;19.33;;;13.75;;
79460;SDS011;68929;42.666;23.324;2023-12-07T00:08:35;23.05;;;18.20;;
79460;SDS011;68929;42.666;23.324;2023-12-07T00:11:01;19.23;;;16.00;;
79460;SDS011;68929;42.666;23.324;2023-12-07T00:13:26;19.77;;;15.15;;
79460;SDS011;68929;42.666;23.324;2023-12-07T00:15:52;21.73;;;16.38;;
79460;SDS011;68929;42.666;23.324;2023-12-07T00:18:17;22.08;;;16.02;;
79460;SDS011;68929;42.666;23.324;2023-12-07T00:20:43;20.27;;;15.10;;
79460;SDS011;68929;42.666;23.324;2023-12-07T00:23:08;22.63;;;18.33;;
79460;SDS011;68929;42.666;23.324;2023-12-07T00:25:34;23.88;;;18.42;;
79460;SDS011;68929;42.666;23.324;2023-12-07T00:27:59;28.85;;;22.02;;
79460;SDS011;68929;42.666;23.324;2023-12-07T00:30:24;24.38;;;18.63;;
79460;SDS011;68929;42.666;23.324;2023-12-07T00:32:50;22.15;;;17.60;;
79460;SDS011;68929;42.666;23.324;2023-12-07T00:35:16;23.48;;;16.13;;
79460;SDS011;68929;42.666;23.324;2023-12-07T00:37:41;19.40;;;15.88;;
79460;SDS011;68929;42.666;23.324;2023-12-07T00:40:07;23.65;;;17.67;;
79460;SDS011;68929;42.666;23.324;2023-12-07T00:42:33;24.20;;;19.33;;
79460;SDS011;68929;42.666;23.324;2023-12-07T00:44:59;22.98;;;17.80;;
79460;SDS011;68929;42.666;23.324;2023-12-07T00:47:25;25.92;;;20.52;;
79460;SDS011;68929;42.666;23.324;2023-12-07T00:49:51;23.67;;;18.00;;
79460;SDS011;68929;42.666;23.324;2023-12-07T00:52:16;22.30;;;18.55;;
79460;SDS011;68929;42.666;23.324;2023-12-07T00:54:43;25.45;;;19.38;;
79460;SDS011;68929;42.666;23.324;2023-12-07T00:57:09;23.30;;;17.45;;
79460;SDS011;68929;42.666;23.324;2023-12-07T00:59:34;26.02;;;18.52;;
79460;SDS011;68929;42.666;23.324;2023-12-07T01:02:01;25.77;;;18.55;;
79460;SDS011;68929;42.666;23.324;2023-12-07T01:04:30;25.92;;;18.55;;
79460;SDS011;68929;42.666;23.324;2023-12-07T01:06:56;27.65;;;20.15;;
79460;SDS011;68929;42.666;23.324;2023-12-07T01:09:22;26.88;;;19.27;;
79460;SDS011;68929;42.666;23.324;2023-12-07T01:11:48;23.23;;;17.35;;
79460;SDS011;68929;42.666;23.324;2023-12-07T01:14:14;21.88;;;17.17;;
79460;SDS011;68929;42.666;23.324;2023-12-07T01:16:39;24.90;;;18.98;;
79460;SDS011;68929;42.666;23.324;2023-12-07T01:19:05;23.95;;;17.70;;
79460;SDS011;68929;42.666;23.324;2023-12-07T01:21:32;26.75;;;20.05;;
79460;SDS011;68929;42.666;23.324;2023-12-07T01:23:58;25.45;;;19.08;;
79460;SDS011;68929;42.666;23.324;2023-12-07T01:26:23;22.92;;;18.70;;
79460;SDS011;68929;42.666;23.324;2023-12-07T01:28:49;25.33;;;19.20;;
79460;SDS011;68929;42.666;23.324;2023-12-07T01:31:14;26.55;;;18.70;;
79460;SDS011;68929;42.666;23.324;2023-12-07T01:33:40;22.65;;;18.88;;
79460;SDS011;68929;42.666;23.324;2023-12-07T01:36:05;22.50;;;18.50;;
79460;SDS011;68929;42.666;23.324;2023-12-07T01:38:31;23.27;;;18.55;;
79460;SDS011;68929;42.666;23.324;2023-12-07T01:40:57;23.75;;;18.73;;
79460;SDS011;68929;42.666;23.324;2023-12-07T01:43:22;25.27;;;19.02;;
79460;SDS011;68929;42.666;23.324;2023-12-07T01:45:48;25.83;;;18.95;;
79460;SDS011;68929;42.666;23.324;2023-12-07T01:48:18;25.00;;;18.08;;
79460;SDS011;68929;42.666;23.324;2023-12-07T01:50:46;24.17;;;19.05;;
79460;SDS011;68929;42.666;23.324;2023-12-07T01:53:12;24.40;;;18.00;;
79460;SDS011;68929;42.666;23.324;2023-12-07T01:55:39;28.30;;;19.13;;
79460;SDS011;68929;42.666;23.324;2023-12-07T01:58:05;26.08;;;19.13;;
79460;SDS011;68929;42.666;23.324;2023-12-07T02:00:32;28.17;;;19.98;;
79460;SDS011;68929;42.666;23.324;2023-12-07T02:02:58;23.67;;;18.27;;
79460;SDS011;68929;42.666;23.324;2023-12-07T02:05:25;25.50;;;17.77;;
79460;SDS011;68929;42.666;23.324;2023-12-07T02:07:51;25.40;;;18.60;;
79460;SDS011;68929;42.666;23.324;2023-12-07T02:10:17;23.77;;;17.15;;
79460;SDS011;68929;42.666;23.324;2023-12-07T02:12:44;25.88;;;19.25;;
79460;SDS011;68929;42.666;23.324;2023-12-07T02:15:10;26.63;;;19.50;;
79460;SDS011;68929;42.666;23.324;2023-12-07T02:20:29;25.60;;;19.42;;
79460;SDS011;68929;42.666;23.324;2023-12-07T02:23:06;28.17;;;20.25;;
79460;SDS011;68929;42.666;23.324;2023-12-07T02:25:36;28.52;;;20.48;;
79460;SDS011;68929;42.666;23.324;2023-12-07T02:28:28;23.73;;;17.63;;
79460;SDS011;68929;42.666;23.324;2023-12-07T02:30:53;24.40;;;18.10;;
79460;SDS011;68929;42.666;23.324;2023-12-07T02:33:19;26.48;;;18.85;;
79460;SDS011;68929;42.666;23.324;2023-12-07T02:35:45;25.77;;;18.55;;
79460;SDS011;68929;42.666;23.324;2023-12-07T02:38:10;27.05;;;19.48;;
79460;SDS011;68929;42.666;23.324;2023-12-07T02:40:36;27.77;;;20.23;;
79460;SDS011;68929;42.666;23.324;2023-12-07T02:43:03;26.00;;;20.23;;
79460;SDS011;68929;42.666;23.324;2023-12-07T02:45:29;27.70;;;18.92;;
79460;SDS011;68929;42.666;23.324;2023-12-07T02:47:57;26.95;;;21.00;;
79460;SDS011;68929;42.666;23.324;2023-12-07T02:50:23;23.35;;;18.05;;
79460;SDS011;68929;42.666;23.324;2023-12-07T02:52:48;24.70;;;18.33;;
79460;SDS011;68929;42.666;23.324;2023-12-07T02:55:14;25.33;;;18.35;;
79460;SDS011;68929;42.666;23.324;2023-12-07T02:57:39;24.20;;;18.88;;
79460;SDS011;68929;42.666;23.324;2023-12-07T03:00:05;30.35;;;21.92;;
79460;SDS011;68929;42.666;23.324;2023-12-07T03:02:38;28.98;;;20.65;;
79460;SDS011;68929;42.666;23.324;2023-12-07T03:05:05;27.58;;;18.38;;
79460;SDS011;68929;42.666;23.324;2023-12-07T03:07:31;22.30;;;15.60;;
79460;SDS011;68929;42.666;23.324;2023-12-07T03:09:57;23.80;;;18.48;;
79460;SDS011;68929;42.666;23.324;2023-12-07T03:12:23;19.05;;;15.50;;
79460;SDS011;68929;42.666;23.324;2023-12-07T03:14:48;21.95;;;16.02;;
79460;SDS011;68929;42.666;23.324;2023-12-07T03:17:14;19.90;;;15.50;;
79460;SDS011;68929;42.666;23.324;2023-12-07T03:19:40;21.92;;;16.92;;
79460;SDS011;68929;42.666;23.324;2023-12-07T03:22:06;22.75;;;17.42;;
79460;SDS011;68929;42.666;23.324;2023-12-07T03:24:36;19.45;;;16.02;;
79460;SDS011;68929;42.666;23.324;2023-12-07T03:27:02;22.65;;;17.15;;
79460;SDS011;68929;42.666;23.324;2023-12-07T03:29:33;27.83;;;20.63;;
79460;SDS011;68929;42.666;23.324;2023-12-07T03:31:59;22.25;;;17.88;;
79460;SDS011;68929;42.666;23.324;2023-12-07T03:34:24;22.02;;;16.83;;
79460;SDS011;68929;42.666;23.324;2023-12-07T03:36:50;19.92;;;16.92;;
79460;SDS011;68929;42.666;23.324;2023-12-07T03:39:16;21.02;;;15.95;;
79460;SDS011;68929;42.666;23.324;2023-12-07T03:41:50;20.75;;;16.08;;
79460;SDS011;68929;42.666;23.324;2023-12-07T03:44:15;20.95;;;14.98;;
79460;SDS011;68929;42.666;23.324;2023-12-07T03:46:41;18.50;;;15.13;;
79460;SDS011;68929;42.666;23.324;2023-12-07T03:49:06;19.67;;;15.50;;
79460;SDS011;68929;42.666;23.324;2023-12-07T03:51:32;19.63;;;15.32;;
79460;SDS011;68929;42.666;23.324;2023-12-07T03:53:57;21.83;;;16.17;;
79460;SDS011;68929;42.666;23.324;2023-12-07T03:56:26;19.52;;;15.90;;
79460;SDS011;68929;42.666;23.324;2023-12-07T03:58:54;19.13;;;15.32;;
79460;SDS011;68929;42.666;23.324;2023-12-07T04:01:22;19.83;;;14.82;;
79460;SDS011;68929;42.666;23.324;2023-12-07T04:03:49;25.25;;;19.10;;
79460;SDS011;68929;42.666;23.324;2023-12-07T04:06:14;29.15;;;21.73;;
79460;SDS011;68929;42.666;23.324;2023-12-07T04:08:40;30.05;;;22.23;;
79460;SDS011;68929;42.666;23.324;2023-12-07T04:11:05;27.15;;;21.65;;
79460;SDS011;68929;42.666;23.324;2023-12-07T04:13:44;27.35;;;22.17;;
79460;SDS011;68929;42.666;23.324;2023-12-07T04:16:10;33.28;;;25.08;;
79460;SDS011;68929;42.666;23.324;2023-12-07T04:18:36;31.50;;;24.48;;
79460;SDS011;68929;42.666;23.324;2023-12-07T04:21:02;36.92;;;26.13;;
79460;SDS011;68929;42.666;23.324;2023-12-07T04:23:28;39.10;;;27.48;;
79460;SDS011;68929;42.666;23.324;2023-12-07T04:25:53;42.97;;;28.95;;
79460;SDS011;68929;42.666;23.324;2023-12-07T04:28:19;29.98;;;22.35;;
79460;SDS011;68929;42.666;23.324;2023-12-07T04:30:45;36.95;;;25.17;;
79460;SDS011;68929;42.666;23.324;2023-12-07T04:33:10;41.42;;;28.80;;
79460;SDS011;68929;42.666;23.324;2023-12-07T04:35:35;35.22;;;25.95;;
79460;SDS011;68929;42.666;23.324;2023-12-07T04:38:01;36.38;;;25.05;;
79460;SDS011;68929;42.666;23.324;2023-12-07T04:40:27;35.20;;;24.35;;
79460;SDS011;68929;42.666;23.324;2023-12-07T04:42:52;34.42;;;24.40;;
79460;SDS011;68929;42.666;23.324;2023-12-07T04:45:18;31.77;;;24.02;;
79460;SDS011;68929;42.666;23.324;2023-12-07T04:47:44;32.22;;;23.05;;
79460;SDS011;68929;42.666;23.324;2023-12-07T04:50:10;33.08;;;24.65;;
79460;SDS011;68929;42.666;23.324;2023-12-07T04:52:36;30.45;;;22.13;;
79460;SDS011;68929;42.666;23.324;2023-12-07T04:55:01;36.90;;;25.83;;
79460;SDS011;68929;42.666;23.324;2023-12-07T04:57:27;37.80;;;25.05;;
79460;SDS011;68929;42.666;23.324;2023-12-07T04:59:52;32.67;;;22.58;;
79460;SDS011;68929;42.666;23.324;2023-12-07T05:02:18;28.80;;;20.73;;
79460;SDS011;68929;42.666;23.324;2023-12-07T05:04:44;28.05;;;19.83;;
79460;SDS011;68929;42.666;23.324;2023-12-07T05:07:12;30.00;;;22.00;;
79460;SDS011;68929;42.666;23.324;2023-12-07T05:09:39;30.00;;;20.58;;
79460;SDS011;68929;42.666;23.324;2023-12-07T05:12:05;31.20;;;21.98;;
79460;SDS011;68929;42.666;23.324;2023-12-07T05:14:31;31.30;;;23.15;;
79460;SDS011;68929;42.666;23.324;2023-12-07T05:16:57;30.33;;;21.25;;
79460;SDS011;68929;42.666;23.324;2023-12-07T05:19:23;32.80;;;23.27;;
79460;SDS011;68929;42.666;23.324;2023-12-07T05:21:49;27.80;;;20.75;;
79460;SDS011;68929;42.666;23.324;2023-12-07T05:24:14;28.73;;;20.42;;
79460;SDS011;68929;42.666;23.324;2023-12-07T05:26:44;26.23;;;18.10;;
79460;SDS011;68929;42.666;23.324;2023-12-07T05:29:13;30.13;;;21.55;;
79460;SDS011;68929;42.666;23.324;2023-12-07T05:31:39;28.38;;;21.10;;
79460;SDS011;68929;42.666;23.324;2023-12-07T05:34:04;20.25;;;15.48;;
79460;SDS011;68929;42.666;23.324;2023-12-07T05:36:30;30.45;;;21.50;;
79460;SDS011;68929;42.666;23.324;2023-12-07T05:38:56;31.17;;;22.65;;
79460;SDS011;68929;42.666;23.324;2023-12-07T05:41:22;30.40;;;22.83;;
79460;SDS011;68929;42.666;23.324;2023-12-07T05:43:47;32.67;;;23.25;;
79460;SDS011;68929;42.666;23.324;2023-12-07T05:46:13;29.67;;;21.15;;
79460;SDS011;68929;42.666;23.324;2023-12-07T05:48:38;25.80;;;19.20;;
79460;SDS011;68929;42.666;23.324;2023-12-07T05:51:04;26.17;;;20.48;;
79460;SDS011;68929;42.666;23.324;2023-12-07T05:53:30;29.30;;;21.77;;
79460;SDS011;68929;42.666;23.324;2023-12-07T05:55:57;31.02;;;22.33;;
79460;SDS011;68929;42.666;23.324;2023-12-07T05:58:23;30.50;;;22.27;;
79460;SDS011;68929;42.666;23.324;2023-12-07T06:00:49;34.75;;;24.92;;
79460;SDS011;68929;42.666;23.324;2023-12-07T06:03:14;30.40;;;23.10;;
79460;SDS011;68929;42.666;23.324;2023-12-07T06:05:40;28.88;;;21.60;;
79460;SDS011;68929;42.666;23.324;2023-12-07T06:08:06;36.63;;;26.40;;
79460;SDS011;68929;42.666;23.324;2023-12-07T06:10:32;35.08;;;23.60;;
79460;SDS011;68929;42.666;23.324;2023-12-07T06:12:57;34.10;;;23.25;;
79460;SDS011;68929;42.666;23.324;2023-12-07T06:15:26;31.52;;;24.15;;
79460;SDS011;68929;42.666;23.324;2023-12-07T06:17:52;28.73;;;20.83;;
79460;SDS011;68929;42.666;23.324;2023-12-07T06:20:17;29.10;;;21.27;;
79460;SDS011;68929;42.666;23.324;2023-12-07T06:22:44;26.65;;;19.58;;
79460;SDS011;68929;42.666;23.324;2023-12-07T06:25:11;31.25;;;21.48;;
79460;SDS011;68929;42.666;23.324;2023-12-07T06:27:39;33.38;;;21.20;;
79460;SDS011;68929;42.666;23.324;2023-12-07T06:30:05;32.55;;;20.83;;
79460;SDS011;68929;42.666;23.324;2023-12-07T06:32:38;30.52;;;21.13;;
79460;SDS011;68929;42.666;23.324;2023-12-07T06:35:11;28.60;;;19.90;;
79460;SDS011;68929;42.666;23.324;2023-12-07T06:37:37;33.53;;;21.40;;
79460;SDS011;68929;42.666;23.324;2023-12-07T06:40:04;27.65;;;18.13;;
79460;SDS011;68929;42.666;23.324;2023-12-07T06:42:31;29.50;;;18.88;;
79460;SDS011;68929;42.666;23.324;2023-12-07T06:44:56;27.63;;;18.30;;
79460;SDS011;68929;42.666;23.324;2023-12-07T06:47:22;25.02;;;17.35;;
79460;SDS011;68929;42.666;23.324;2023-12-07T06:49:47;26.25;;;18.40;;
79460;SDS011;68929;42.666;23.324;2023-12-07T06:52:13;21.73;;;16.58;;
79460;SDS011;68929;42.666;23.324;2023-12-07T06:54:38;26.63;;;17.48;;
79460;SDS011;68929;42.666;23.324;2023-12-07T06:57:04;28.85;;;18.00;;
79460;SDS011;68929;42.666;23.324;2023-12-07T06:59:32;23.80;;;16.30;;
79460;SDS011;68929;42.666;23.324;2023-12-07T07:02:03;25.25;;;18.38;;
79460;SDS011;68929;42.666;23.324;2023-12-07T07:04:33;23.50;;;17.33;;
79460;SDS011;68929;42.666;23.324;2023-12-07T07:07:01;26.50;;;17.98;;
79460;SDS011;68929;42.666;23.324;2023-12-07T07:09:27;19.95;;;12.52;;
79460;SDS011;68929;42.666;23.324;2023-12-07T07:11:52;23.98;;;13.02;;
79460;SDS011;68929;42.666;23.324;2023-12-07T07:14:18;25.55;;;15.20;;
79460;SDS011;68929;42.666;23.324;2023-12-07T07:16:44;21.75;;;14.73;;
79460;SDS011;68929;42.666;23.324;2023-12-07T07:19:10;22.42;;;16.17;;
79460;SDS011;68929;42.666;23.324;2023-12-07T07:21:35;24.15;;;16.25;;
79460;SDS011;68929;42.666;23.324;2023-12-07T07:24:01;25.85;;;18.33;;
79460;SDS011;68929;42.666;23.324;2023-12-07T07:26:27;20.48;;;14.00;;
79460;SDS011;68929;42.666;23.324;2023-12-07T07:28:52;21.83;;;16.38;;
79460;SDS011;68929;42.666;23.324;2023-12-07T07:31:18;27.42;;;18.50;;
79460;SDS011;68929;42.666;23.324;2023-12-07T07:33:44;22.48;;;14.93;;
79460;SDS011;68929;42.666;23.324;2023-12-07T07:36:12;23.35;;;17.48;;
79460;SDS011;68929;42.666;23.324;2023-12-07T07:38:38;24.35;;;17.75;;
79460;SDS011;68929;42.666;23.324;2023-12-07T07:41:03;20.38;;;15.75;;
79460;SDS011;68929;42.666;23.324;2023-12-07T07:43:33;23.05;;;18.58;;
79460;SDS011;68929;42.666;23.324;2023-12-07T07:48:26;25.58;;;18.65;;
79460;SDS011;68929;42.666;23.324;2023-12-07T07:50:52;27.20;;;17.73;;
79460;SDS011;68929;42.666;23.324;2023-12-07T07:53:17;30.65;;;18.08;;
79460;SDS011;68929;42.666;23.324;2023-12-07T07:55:43;28.38;;;18.10;;
79460;SDS011;68929;42.666;23.324;2023-12-07T07:58:08;19.63;;;13.90;;
79460;SDS011;68929;42.666;23.324;2023-12-07T08:00:34;19.38;;;13.75;;
79460;SDS011;68929;42.666;23.324;2023-12-07T08:03:00;10.07;;;7.70;;
79460;SDS011;68929;42.666;23.324;2023-12-07T08:05:27;15.20;;;10.55;;
79460;SDS011;68929;42.666;23.324;2023-12-07T08:07:53;16.95;;;10.90;;
79460;SDS011;68929;42.666;23.324;2023-12-07T08:10:19;12.18;;;8.77;;
79460;SDS011;68929;42.666;23.324;2023-12-07T08:12:49;13.75;;;9.95;;
79460;SDS011;68929;42.666;23.324;2023-12-07T08:15:15;9.98;;;7.85;;
79460;SDS011;68929;42.666;23.324;2023-12-07T08:17:41;11.85;;;9.27;;
79460;SDS011;68929;42.666;23.324;2023-12-07T08:20:07;14.85;;;10.10;;
79460;SDS011;68929;42.666;23.324;2023-12-07T08:22:35;10.93;;;8.05;;
79460;SDS011;68929;42.666;23.324;2023-12-07T08:25:06;11.83;;;9.33;;
79460;SDS011;68929;42.666;23.324;2023-12-07T08:27:33;11.63;;;9.32;;
79460;SDS011;68929;42.666;23.324;2023-12-07T08:29:59;11.65;;;9.52;;
79460;SDS011;68929;42.666;23.324;2023-12-07T08:32:24;13.10;;;9.88;;
79460;SDS011;68929;42.666;23.324;2023-12-07T08:34:53;14.18;;;9.88;;
79460;SDS011;68929;42.666;23.324;2023-12-07T08:37:26;11.82;;;8.65;;
79460;SDS011;68929;42.666;23.324;2023-12-07T08:39:52;8.40;;;6.90;;
79460;SDS011;68929;42.666;23.324;2023-12-07T08:42:17;13.15;;;9.85;;
79460;SDS011;68929;42.666;23.324;2023-12-07T08:44:43;11.50;;;9.48;;
79460;SDS011;68929;42.666;23.324;2023-12-07T08:47:09;9.85;;;7.85;;
79460;SDS011;68929;42.666;23.324;2023-12-07T08:49:34;8.80;;;6.63;;
79460;SDS011;68929;42.666;23.324;2023-12-07T08:52:00;9.38;;;7.50;;
79460;SDS011;68929;42.666;23.324;2023-12-07T08:54:26;6.95;;;6.10;;
79460;SDS011;68929;42.666;23.324;2023-12-07T08:56:51;11.07;;;7.18;;
79460;SDS011;68929;42.666;23.324;2023-12-07T08:59:17;7.32;;;6.05;;
79460;SDS011;68929;42.666;23.324;2023-12-07T09:01:42;6.57;;;5.63;;
79460;SDS011;68929;42.666;23.324;2023-12-07T09:04:08;6.95;;;5.43;;
79460;SDS011;68929;42.666;23.324;2023-12-07T09:06:34;4.97;;;4.45;;
79460;SDS011;68929;42.666;23.324;2023-12-07T09:09:01;4.70;;;4.20;;
79460;SDS011;68929;42.666;23.324;2023-12-07T09:11:29;5.82;;;4.60;;
79460;SDS011;68929;42.666;23.324;2023-12-07T09:13:57;5.38;;;4.07;;
79460;SDS011;68929;42.666;23.324;2023-12-07T09:16:23;5.60;;;4.43;;
79460;SDS011;68929;42.666;23.324;2023-12-07T09:18:54;5.75;;;4.65;;
79460;SDS011;68929;42.666;23.324;2023-12-07T09:21:24;4.50;;;4.05;;
79460;SDS011;68929;42.666;23.324;2023-12-07T09:24:02;9.20;;;3.90;;
79460;SDS011;68929;42.666;23.324;2023-12-07T09:26:28;5.00;;;4.03;;
79460;SDS011;68929;42.666;23.324;2023-12-07T09:28:54;5.22;;;4.40;;
79460;SDS011;68929;42.666;23.324;2023-12-07T09:31:19;5.80;;;4.05;;
79460;SDS011;68929;42.666;23.324;2023-12-07T09:33:48;4.45;;;3.70;;
79460;SDS011;68929;42.666;23.324;2023-12-07T09:36:21;3.67;;;3.30;;
79460;SDS011;68929;42.666;23.324;2023-12-07T09:38:49;4.88;;;3.47;;
79460;SDS011;68929;42.666;23.324;2023-12-07T09:41:14;4.13;;;3.53;;
79460;SDS011;68929;42.666;23.324;2023-12-07T09:43:40;4.80;;;3.03;;
79460;SDS011;68929;42.666;23.324;2023-12-07T09:46:05;4.22;;;2.85;;
79460;SDS011;68929;42.666;23.324;2023-12-07T09:48:31;3.75;;;2.97;;
79460;SDS011;68929;42.666;23.324;2023-12-07T09:50:57;5.22;;;3.00;;
79460;SDS011;68929;42.666;23.324;2023-12-07T09:53:25;2.83;;;2.60;;
79460;SDS011;68929;42.666;23.324;2023-12-07T09:55:54;3.58;;;2.53;;
79460;SDS011;68929;42.666;23.324;2023-12-07T09:58:19;3.50;;;3.00;;
79460;SDS011;68929;42.666;23.324;2023-12-07T10:00:46;3.60;;;3.30;;
79460;SDS011;68929;42.666;23.324;2023-12-07T10:03:24;3.97;;;3.15;;
79460;SDS011;68929;42.666;23.324;2023-12-07T10:05:59;4.43;;;3.15;;
79460;SDS011;68929;42.666;23.324;2023-12-07T10:08:30;2.90;;;2.60;;
79460;SDS011;68929;42.666;23.324;2023-12-07T10:11:09;4.13;;;2.72;;
79460;SDS011;68929;42.666;23.324;2023-12-07T10:13:43;3.40;;;2.65;;
79460;SDS011;68929;42.666;23.324;2023-12-07T10:16:10;2.83;;;2.40;;
79460;SDS011;68929;42.666;23.324;2023-12-07T10:18:44;3.22;;;2.45;;
79460;SDS011;68929;42.666;23.324;2023-12-07T10:21:12;2.42;;;2.08;;
79460;SDS011;68929;42.666;23.324;2023-12-07T10:23:38;4.13;;;2.35;;
79460;SDS011;68929;42.666;23.324;2023-12-07T10:26:09;3.53;;;2.58;;
79460;SDS011;68929;42.666;23.324;2023-12-07T10:28:50;2.72;;;2.13;;
79460;SDS011;68929;42.666;23.324;2023-12-07T10:31:21;4.03;;;3.00;;
79460;SDS011;68929;42.666;23.324;2023-12-07T10:33:51;2.17;;;1.55;;
79460;SDS011;68929;42.666;23.324;2023-12-07T10:36:17;2.38;;;1.80;;
79460;SDS011;68929;42.666;23.324;2023-12-07T10:38:42;3.17;;;2.10;;
79460;SDS011;68929;42.666;23.324;2023-12-07T10:41:10;4.35;;;2.72;;
79460;SDS011;68929;42.666;23.324;2023-12-07T10:43:38;2.42;;;1.85;;
79460;SDS011;68929;42.666;23.324;2023-12-07T10:46:08;2.15;;;1.80;;
79460;SDS011;68929;42.666;23.324;2023-12-07T10:48:35;3.33;;;2.70;;
79460;SDS011;68929;42.666;23.324;2023-12-07T10:51:02;2.90;;;2.20;;
79460;SDS011;68929;42.666;23.324;2023-12-07T10:53:40;2.58;;;2.35;;
79460;SDS011;68929;42.666;23.324;2023-12-07T10:56:13;2.33;;;2.08;;
79460;SDS011;68929;42.666;23.324;2023-12-07T10:58:51;2.70;;;2.00;;
79460;SDS011;68929;42.666;23.324;2023-12-07T11:01:17;2.92;;;2.03;;
79460;SDS011;68929;42.666;23.324;2023-12-07T11:03:49;3.15;;;2.05;;
79460;SDS011;68929;42.666;23.324;2023-12-07T11:06:18;4.28;;;2.97;;
79460;SDS011;68929;42.666;23.324;2023-12-07T11:08:49;3.25;;;2.78;;
79460;SDS011;68929;42.666;23.324;2023-12-07T11:13:57;2.60;;;2.13;;
79460;SDS011;68929;42.666;23.324;2023-12-07T11:16:40;3.45;;;2.58;;
79460;SDS011;68929;42.666;23.324;2023-12-07T11:21:58;4.68;;;2.95;;
79460;SDS011;68929;42.666;23.324;2023-12-07T11:24:27;4.88;;;2.97;;
79460;SDS011;68929;42.666;23.324;2023-12-07T11:26:53;4.28;;;2.80;;
79460;SDS011;68929;42.666;23.324;2023-12-07T11:29:32;4.20;;;2.65;;
79460;SDS011;68929;42.666;23.324;2023-12-07T11:32:04;3.17;;;2.63;;
79460;SDS011;68929;42.666;23.324;2023-12-07T11:34:40;3.72;;;2.53;;
79460;SDS011;68929;42.666;23.324;2023-12-07T11:37:10;2.90;;;2.58;;
79460;SDS011;68929;42.666;23.324;2023-12-07T11:39:41;2.13;;;1.70;;
79460;SDS011;68929;42.666;23.324;2023-12-07T11:44:41;5.05;;;3.05;;
79460;SDS011;68929;42.666;23.324;2023-12-07T11:47:07;4.13;;;3.13;;
79460;SDS011;68929;42.666;23.324;2023-12-07T11:49:36;3.03;;;2.60;;
79460;SDS011;68929;42.666;23.324;2023-12-07T11:52:20;3.10;;;2.80;;
79460;SDS011;68929;42.666;23.324;2023-12-07T11:54:47;4.25;;;2.85;;
79460;SDS011;68929;42.666;23.324;2023-12-07T11:57:13;4.38;;;3.17;;
79460;SDS011;68929;42.666;23.324;2023-12-07T11:59:40;5.60;;;4.00;;
79460;SDS011;68929;42.666;23.324;2023-12-07T12:02:06;4.10;;;3.63;;
79460;SDS011;68929;42.666;23.324;2023-12-07T12:04:31;3.22;;;2.92;;
79460;SDS011;68929;42.666;23.324;2023-12-07T12:06:57;4.03;;;3.50;;
79460;SDS011;68929;42.666;23.324;2023-12-07T12:09:25;3.90;;;3.10;;
79460;SDS011;68929;42.666;23.324;2023-12-07T12:11:51;8.23;;;3.20;;
79460;SDS011;68929;42.666;23.324;2023-12-07T12:14:17;6.25;;;3.40;;
79460;SDS011;68929;42.666;23.324;2023-12-07T12:16:45;3.63;;;3.10;;
79460;SDS011;68929;42.666;23.324;2023-12-07T12:19:12;4.13;;;3.20;;
79460;SDS011;68929;42.666;23.324;2023-12-07T12:21:41;2.92;;;2.60;;
79460;SDS011;68929;42.666;23.324;2023-12-07T12:24:08;3.60;;;2.95;;
79460;SDS011;68929;42.666;23.324;2023-12-07T12:26:38;4.80;;;3.65;;
79460;SDS011;68929;42.666;23.324;2023-12-07T12:29:10;4.20;;;3.00;;
79460;SDS011;68929;42.666;23.324;2023-12-07T12:31:37;5.60;;;3.30;;
79460;SDS011;68929;42.666;23.324;2023-12-07T12:34:06;3.05;;;2.75;;
79460;SDS011;68929;42.666;23.324;2023-12-07T12:36:33;3.30;;;3.00;;
79460;SDS011;68929;42.666;23.324;2023-12-07T12:38:59;6.82;;;3.35;;
79460;SDS011;68929;42.666;23.324;2023-12-07T12:41:27;4.25;;;3.00;;
79460;SDS011;68929;42.666;23.324;2023-12-07T12:43:55;4.43;;;3.35;;
79460;SDS011;68929;42.666;23.324;2023-12-07T12:46:21;4.57;;;3.22;;
79460;SDS011;68929;42.666;23.324;2023-12-07T12:51:23;6.63;;;4.43;;
79460;SDS011;68929;42.666;23.324;2023-12-07T12:53:53;3.42;;;3.13;;
79460;SDS011;68929;42.666;23.324;2023-12-07T12:56:20;4.40;;;3.58;;
79460;SDS011;68929;42.666;23.324;2023-12-07T12:58:49;3.63;;;2.95;;
79460;SDS011;68929;42.666;23.324;2023-12-07T13:01:16;3.30;;;3.00;;
79460;SDS011;68929;42.666;23.324;2023-12-07T13:03:47;4.47;;;3.80;;
79460;SDS011;68929;42.666;23.324;2023-12-07T13:06:19;3.83;;;3.35;;
79460;SDS011;68929;42.666;23.324;2023-12-07T13:08:46;6.00;;;4.03;;
79460;SDS011;68929;42.666;23.324;2023-12-07T13:11:18;5.20;;;3.90;;
79460;SDS011;68929;42.666;23.324;2023-12-07T13:13:45;4.22;;;3.80;;
79460;SDS011;68929;42.666;23.324;2023-12-07T13:16:17;3.50;;;3.20;;
79460;SDS011;68929;42.666;23.324;2023-12-07T13:18:43;4.32;;;3.92;;
79460;SDS011;68929;42.666;23.324;2023-12-07T13:21:08;5.82;;;4.43;;
79460;SDS011;68929;42.666;23.324;2023-12-07T13:23:35;5.63;;;4.22;;
79460;SDS011;68929;42.666;23.324;2023-12-07T13:26:07;5.05;;;4.53;;
79460;SDS011;68929;42.666;23.324;2023-12-07T13:28:33;6.88;;;4.90;;
79460;SDS011;68929;42.666;23.324;2023-12-07T13:30:59;5.20;;;4.53;;
79460;SDS011;68929;42.666;23.324;2023-12-07T13:33:24;7.45;;;4.38;;
79460;SDS011;68929;42.666;23.324;2023-12-07T13:35:50;5.32;;;4.63;;
79460;SDS011;68929;42.666;23.324;2023-12-07T13:38:17;5.15;;;4.10;;
79460;SDS011;68929;42.666;23.324;2023-12-07T13:40:45;7.45;;;4.72;;
79460;SDS011;68929;42.666;23.324;2023-12-07T13:43:12;4.65;;;4.25;;
79460;SDS011;68929;42.666;23.324;2023-12-07T13:45:37;5.40;;;4.32;;
79460;SDS011;68929;42.666;23.324;2023-12-07T13:48:03;4.35;;;3.95;;
79460;SDS011;68929;42.666;23.324;2023-12-07T13:50:29;5.95;;;5.07;;
79460;SDS011;68929;42.666;23.324;2023-12-07T13:52:54;10.27;;;7.03;;
79460;SDS011;68929;42.666;23.324;2023-12-07T13:55:20;8.57;;;5.78;;
79460;SDS011;68929;42.666;23.324;2023-12-07T13:57:46;7.15;;;5.10;;
79460;SDS011;68929;42.666;23.324;2023-12-07T14:00:11;8.82;;;4.93;;
79460;SDS011;68929;42.666;23.324;2023-12-07T14:02:38;7.10;;;5.53;;
79460;SDS011;68929;42.666;23.324;2023-12-07T14:05:04;6.60;;;4.68;;
79460;SDS011;68929;42.666;23.324;2023-12-07T14:07:30;6.53;;;5.68;;
79460;SDS011;68929;42.666;23.324;2023-12-07T14:09:55;8.45;;;6.07;;
79460;SDS011;68929;42.666;23.324;2023-12-07T14:12:21;8.80;;;7.80;;
79460;SDS011;68929;42.666;23.324;2023-12-07T14:14:48;7.70;;;6.82;;
79460;SDS011;68929;42.666;23.324;2023-12-07T14:17:14;9.50;;;7.30;;
79460;SDS011;68929;42.666;23.324;2023-12-07T14:19:40;7.15;;;6.15;;
79460;SDS011;68929;42.666;23.324;2023-12-07T14:22:07;7.18;;;6.45;;
79460;SDS011;68929;42.666;23.324;2023-12-07T14:24:35;7.93;;;6.28;;
79460;SDS011;68929;42.666;23.324;2023-12-07T14:27:01;8.52;;;6.30;;
79460;SDS011;68929;42.666;23.324;2023-12-07T14:29:33;10.18;;;6.70;;
79460;SDS011;68929;42.666;23.324;2023-12-07T14:31:59;9.68;;;7.15;;
79460;SDS011;68929;42.666;23.324;2023-12-07T14:34:25;10.13;;;7.43;;